sensor_id;sensor_type;location;lat;lon;timestamp;temperature;humidity
19970;DHT22;10146;47.754;9.566;2023-04-15T00:00:11;3.20;99.90
19970;DHT22;10146;47.754;9.566;2023-04-15T00:02:37;3.20;99.90
19970;DHT22;10146;47.754;9.566;2023-04-15T00:05:03;3.10;99.90
19970;DHT22;10146;47.754;9.566;2023-04-15T00:07:29;3.10;99.90
19970;DHT22;10146;47.754;9.566;2023-04-15T00:09:56;3.10;99.90
19970;DHT22;10146;47.754;9.566;2023-04-15T00:12:23;3.00;99.90
19970;DHT22;10146;47.754;9.566;2023-04-15T00:14:48;2.80;99.90
19970;DHT22;10146;47.754;9.566;2023-04-15T00:17:14;2.90;99.90
19970;DHT22;10146;47.754;9.566;2023-04-15T00:19:40;2.90;99.90
19970;DHT22;10146;47.754;9.566;2023-04-15T00:22:06;2.80;99.90
19970;DHT22;10146;47.754;9.566;2023-04-15T00:24:32;2.70;99.90
19970;DHT22;10146;47.754;9.566;2023-04-15T00:26:58;2.80;99.90
19970;DHT22;10146;47.754;9.566;2023-04-15T00:29:24;2.80;99.90
19970;DHT22;10146;47.754;9.566;2023-04-15T00:31:50;2.90;99.90
19970;DHT22;10146;47.754;9.566;2023-04-15T00:34:15;2.90;99.90
19970;DHT22;10146;47.754;9.566;2023-04-15T00:36:41;2.80;99.90
19970;DHT22;10146;47.754;9.566;2023-04-15T00:39:07;2.80;99.90
19970;DHT22;10146;47.754;9.566;2023-04-15T00:41:33;2.90;99.90
19970;DHT22;10146;47.754;9.566;2023-04-15T00:44:00;2.80;99.90
19970;DHT22;10146;47.754;9.566;2023-04-15T00:46:28;2.70;99.90
19970;DHT22;10146;47.754;9.566;2023-04-15T00:48:55;2.50;99.90
19970;DHT22;10146;47.754;9.566;2023-04-15T00:51:21;2.60;99.90
19970;DHT22;10146;47.754;9.566;2023-04-15T00:53:47;2.60;99.90
19970;DHT22;10146;47.754;9.566;2023-04-15T00:56:13;2.50;99.90
19970;DHT22;10146;47.754;9.566;2023-04-15T00:58:38;2.60;99.90
19970;DHT22;10146;47.754;9.566;2023-04-15T01:01:04;2.50;99.90
19970;DHT22;10146;47.754;9.566;2023-04-15T01:03:30;2.40;99.90
19970;DHT22;10146;47.754;9.566;2023-04-15T01:05:55;2.50;99.90
19970;DHT22;10146;47.754;9.566;2023-04-15T01:08:27;2.60;99.90
19970;DHT22;10146;47.754;9.566;2023-04-15T01:10:57;2.60;99.90
19970;DHT22;10146;47.754;9.566;2023-04-15T01:13:25;2.70;99.90
19970;DHT22;10146;47.754;9.566;2023-04-15T01:15:52;2.50;99.90
19970;DHT22;10146;47.754;9.566;2023-04-15T01:18:18;2.40;99.90
19970;DHT22;10146;47.754;9.566;2023-04-15T01:20:45;2.40;99.90
19970;DHT22;10146;47.754;9.566;2023-04-15T01:23:11;2.50;99.90
19970;DHT22;10146;47.754;9.566;2023-04-15T01:25:37;2.50;99.90
19970;DHT22;10146;47.754;9.566;2023-04-15T01:28:04;2.40;99.90
19970;DHT22;10146;47.754;9.566;2023-04-15T01:30:33;2.40;99.90
19970;DHT22;10146;47.754;9.566;2023-04-15T01:32:59;2.50;99.90
19970;DHT22;10146;47.754;9.566;2023-04-15T01:35:24;2.30;99.90
19970;DHT22;10146;47.754;9.566;2023-04-15T01:37:52;2.10;99.90
19970;DHT22;10146;47.754;9.566;2023-04-15T01:40:18;2.20;99.90
19970;DHT22;10146;47.754;9.566;2023-04-15T01:42:45;2.10;99.90
19970;DHT22;10146;47.754;9.566;2023-04-15T01:45:11;2.20;99.90
19970;DHT22;10146;47.754;9.566;2023-04-15T01:47:37;2.30;99.90
19970;DHT22;10146;47.754;9.566;2023-04-15T01:50:04;2.20;99.90
19970;DHT22;10146;47.754;9.566;2023-04-15T01:52:29;2.20;99.90
19970;DHT22;10146;47.754;9.566;2023-04-15T01:54:55;2.10;99.90
19970;DHT22;10146;47.754;9.566;2023-04-15T01:57:20;1.90;99.90
19970;DHT22;10146;47.754;9.566;2023-04-15T01:59:46;2.00;99.90
19970;DHT22;10146;47.754;9.566;2023-04-15T02:02:11;2.00;99.90
19970;DHT22;10146;47.754;9.566;2023-04-15T02:04:37;2.00;99.90
19970;DHT22;10146;47.754;9.566;2023-04-15T02:07:03;2.10;99.90
19970;DHT22;10146;47.754;9.566;2023-04-15T02:09:29;2.00;99.90
19970;DHT22;10146;47.754;9.566;2023-04-15T02:11:55;2.00;99.90
19970;DHT22;10146;47.754;9.566;2023-04-15T02:14:21;1.90;99.90
19970;DHT22;10146;47.754;9.566;2023-04-15T02:16:46;1.90;99.90
19970;DHT22;10146;47.754;9.566;2023-04-15T02:19:12;1.60;99.90
19970;DHT22;10146;47.754;9.566;2023-04-15T02:21:38;1.40;99.90
19970;DHT22;10146;47.754;9.566;2023-04-15T02:24:04;1.50;99.90
19970;DHT22;10146;47.754;9.566;2023-04-15T02:26:30;1.30;99.90
19970;DHT22;10146;47.754;9.566;2023-04-15T02:28:59;1.30;99.90
19970;DHT22;10146;47.754;9.566;2023-04-15T02:31:25;1.30;99.90
19970;DHT22;10146;47.754;9.566;2023-04-15T02:33:51;1.40;99.90
19970;DHT22;10146;47.754;9.566;2023-04-15T02:36:16;1.40;99.90
19970;DHT22;10146;47.754;9.566;2023-04-15T02:38:42;1.40;99.90
19970;DHT22;10146;47.754;9.566;2023-04-15T02:41:10;1.60;99.90
19970;DHT22;10146;47.754;9.566;2023-04-15T02:43:36;1.60;99.90
19970;DHT22;10146;47.754;9.566;2023-04-15T02:46:02;1.40;99.90
19970;DHT22;10146;47.754;9.566;2023-04-15T02:48:28;1.50;99.90
19970;DHT22;10146;47.754;9.566;2023-04-15T02:51:09;1.50;99.90
19970;DHT22;10146;47.754;9.566;2023-04-15T02:53:34;1.50;99.90
19970;DHT22;10146;47.754;9.566;2023-04-15T02:56:00;1.50;99.90
19970;DHT22;10146;47.754;9.566;2023-04-15T02:58:26;1.60;99.90
19970;DHT22;10146;47.754;9.566;2023-04-15T03:00:51;1.50;99.90
19970;DHT22;10146;47.754;9.566;2023-04-15T03:03:17;1.50;99.90
19970;DHT22;10146;47.754;9.566;2023-04-15T03:05:43;1.50;99.90
19970;DHT22;10146;47.754;9.566;2023-04-15T03:08:09;1.40;99.90
19970;DHT22;10146;47.754;9.566;2023-04-15T03:10:34;1.20;99.90
19970;DHT22;10146;47.754;9.566;2023-04-15T03:13:00;1.30;99.90
19970;DHT22;10146;47.754;9.566;2023-04-15T03:15:25;1.20;99.90
19970;DHT22;10146;47.754;9.566;2023-04-15T03:17:51;1.30;99.90
19970;DHT22;10146;47.754;9.566;2023-04-15T03:20:17;1.30;99.90
19970;DHT22;10146;47.754;9.566;2023-04-15T03:22:43;1.20;99.90
19970;DHT22;10146;47.754;9.566;2023-04-15T03:25:08;1.30;99.90
19970;DHT22;10146;47.754;9.566;2023-04-15T03:27:34;1.30;99.90
19970;DHT22;10146;47.754;9.566;2023-04-15T03:30:00;1.30;99.90
19970;DHT22;10146;47.754;9.566;2023-04-15T03:32:25;1.40;99.90
19970;DHT22;10146;47.754;9.566;2023-04-15T03:34:51;1.30;99.90
19970;DHT22;10146;47.754;9.566;2023-04-15T03:37:17;1.10;99.90
19970;DHT22;10146;47.754;9.566;2023-04-15T03:39:42;0.90;99.90
19970;DHT22;10146;47.754;9.566;2023-04-15T03:42:08;0.90;99.90
19970;DHT22;10146;47.754;9.566;2023-04-15T03:44:33;1.00;99.90
19970;DHT22;10146;47.754;9.566;2023-04-15T03:46:59;1.10;99.90
19970;DHT22;10146;47.754;9.566;2023-04-15T03:49:25;1.10;99.90
19970;DHT22;10146;47.754;9.566;2023-04-15T03:51:50;1.00;99.90
19970;DHT22;10146;47.754;9.566;2023-04-15T03:54:16;0.90;99.90
19970;DHT22;10146;47.754;9.566;2023-04-15T03:56:42;0.90;99.90
19970;DHT22;10146;47.754;9.566;2023-04-15T03:59:07;1.00;99.90
19970;DHT22;10146;47.754;9.566;2023-04-15T04:01:33;1.00;99.90
19970;DHT22;10146;47.754;9.566;2023-04-15T04:03:58;0.90;99.90
19970;DHT22;10146;47.754;9.566;2023-04-15T04:06:24;0.90;99.90
19970;DHT22;10146;47.754;9.566;2023-04-15T04:08:50;1.00;99.90
19970;DHT22;10146;47.754;9.566;2023-04-15T04:11:16;1.10;99.90
19970;DHT22;10146;47.754;9.566;2023-04-15T04:13:42;0.90;99.90
19970;DHT22;10146;47.754;9.566;2023-04-15T04:16:07;0.90;99.90
19970;DHT22;10146;47.754;9.566;2023-04-15T04:18:33;0.80;99.90
19970;DHT22;10146;47.754;9.566;2023-04-15T04:20:59;0.60;99.90
19970;DHT22;10146;47.754;9.566;2023-04-15T04:23:25;0.60;99.90
19970;DHT22;10146;47.754;9.566;2023-04-15T04:25:51;0.40;99.90
19970;DHT22;10146;47.754;9.566;2023-04-15T04:28:17;0.50;99.90
19970;DHT22;10146;47.754;9.566;2023-04-15T04:30:42;0.50;99.90
19970;DHT22;10146;47.754;9.566;2023-04-15T04:33:08;0.50;99.90
19970;DHT22;10146;47.754;9.566;2023-04-15T04:35:34;0.40;99.90
19970;DHT22;10146;47.754;9.566;2023-04-15T04:38:02;0.40;99.90
19970;DHT22;10146;47.754;9.566;2023-04-15T04:40:28;0.60;99.90
19970;DHT22;10146;47.754;9.566;2023-04-15T04:42:53;0.70;99.90
19970;DHT22;10146;47.754;9.566;2023-04-15T04:45:19;0.80;99.90
19970;DHT22;10146;47.754;9.566;2023-04-15T04:47:45;0.70;99.90
19970;DHT22;10146;47.754;9.566;2023-04-15T04:50:11;0.70;99.90
19970;DHT22;10146;47.754;9.566;2023-04-15T04:52:37;0.70;99.90
19970;DHT22;10146;47.754;9.566;2023-04-15T04:55:03;0.80;99.90
19970;DHT22;10146;47.754;9.566;2023-04-15T04:57:29;0.70;99.90
19970;DHT22;10146;47.754;9.566;2023-04-15T04:59:55;0.60;99.90
19970;DHT22;10146;47.754;9.566;2023-04-15T05:02:21;0.70;99.90
19970;DHT22;10146;47.754;9.566;2023-04-15T05:04:46;0.80;99.90
19970;DHT22;10146;47.754;9.566;2023-04-15T05:07:12;0.80;99.90
19970;DHT22;10146;47.754;9.566;2023-04-15T05:09:37;0.80;99.90
19970;DHT22;10146;47.754;9.566;2023-04-15T05:12:03;0.80;99.90
19970;DHT22;10146;47.754;9.566;2023-04-15T05:14:29;0.70;99.90
19970;DHT22;10146;47.754;9.566;2023-04-15T05:16:55;0.80;99.90
19970;DHT22;10146;47.754;9.566;2023-04-15T05:19:21;0.90;99.90
19970;DHT22;10146;47.754;9.566;2023-04-15T05:21:46;0.90;99.90
19970;DHT22;10146;47.754;9.566;2023-04-15T05:24:12;0.90;99.90
19970;DHT22;10146;47.754;9.566;2023-04-15T05:26:37;1.00;99.90
19970;DHT22;10146;47.754;9.566;2023-04-15T05:29:03;1.00;99.90
19970;DHT22;10146;47.754;9.566;2023-04-15T05:31:29;1.10;99.90
19970;DHT22;10146;47.754;9.566;2023-04-15T05:33:55;1.20;99.90
19970;DHT22;10146;47.754;9.566;2023-04-15T05:36:20;1.30;99.90
19970;DHT22;10146;47.754;9.566;2023-04-15T05:38:46;1.30;99.90
19970;DHT22;10146;47.754;9.566;2023-04-15T05:41:12;1.40;99.90
19970;DHT22;10146;47.754;9.566;2023-04-15T05:43:40;1.60;99.90
19970;DHT22;10146;47.754;9.566;2023-04-15T05:46:05;1.50;99.90
19970;DHT22;10146;47.754;9.566;2023-04-15T05:48:31;1.50;99.90
19970;DHT22;10146;47.754;9.566;2023-04-15T05:50:57;1.50;99.90
19970;DHT22;10146;47.754;9.566;2023-04-15T05:53:22;1.60;99.90
19970;DHT22;10146;47.754;9.566;2023-04-15T05:55:48;1.80;99.90
19970;DHT22;10146;47.754;9.566;2023-04-15T05:58:13;1.90;99.90
19970;DHT22;10146;47.754;9.566;2023-04-15T06:00:39;2.10;99.90
19970;DHT22;10146;47.754;9.566;2023-04-15T06:03:05;2.20;99.90
19970;DHT22;10146;47.754;9.566;2023-04-15T06:05:30;2.30;99.90
19970;DHT22;10146;47.754;9.566;2023-04-15T06:07:56;2.30;99.90
19970;DHT22;10146;47.754;9.566;2023-04-15T06:10:21;2.40;99.90
19970;DHT22;10146;47.754;9.566;2023-04-15T06:12:47;2.50;99.90
19970;DHT22;10146;47.754;9.566;2023-04-15T06:15:13;2.60;99.90
19970;DHT22;10146;47.754;9.566;2023-04-15T06:17:38;2.70;99.90
19970;DHT22;10146;47.754;9.566;2023-04-15T06:20:04;2.80;99.90
19970;DHT22;10146;47.754;9.566;2023-04-15T06:22:30;2.90;99.90
19970;DHT22;10146;47.754;9.566;2023-04-15T06:24:55;3.10;99.90
19970;DHT22;10146;47.754;9.566;2023-04-15T06:27:21;3.20;99.90
19970;DHT22;10146;47.754;9.566;2023-04-15T06:29:47;3.20;99.90
19970;DHT22;10146;47.754;9.566;2023-04-15T06:32:13;3.30;99.90
19970;DHT22;10146;47.754;9.566;2023-04-15T06:34:38;3.40;99.90
19970;DHT22;10146;47.754;9.566;2023-04-15T06:37:04;3.50;99.90
19970;DHT22;10146;47.754;9.566;2023-04-15T06:39:30;3.60;99.90
19970;DHT22;10146;47.754;9.566;2023-04-15T06:41:56;3.70;99.90
19970;DHT22;10146;47.754;9.566;2023-04-15T06:44:22;3.90;99.90
19970;DHT22;10146;47.754;9.566;2023-04-15T06:46:48;3.90;99.90
19970;DHT22;10146;47.754;9.566;2023-04-15T06:49:13;4.00;99.90
19970;DHT22;10146;47.754;9.566;2023-04-15T06:51:39;4.10;99.90
19970;DHT22;10146;47.754;9.566;2023-04-15T06:54:05;4.20;99.90
19970;DHT22;10146;47.754;9.566;2023-04-15T06:56:31;4.20;99.90
19970;DHT22;10146;47.754;9.566;2023-04-15T06:58:57;4.30;99.90
19970;DHT22;10146;47.754;9.566;2023-04-15T07:01:23;4.40;99.90
19970;DHT22;10146;47.754;9.566;2023-04-15T07:03:48;4.60;99.90
19970;DHT22;10146;47.754;9.566;2023-04-15T07:06:14;4.70;99.90
19970;DHT22;10146;47.754;9.566;2023-04-15T07:08:40;4.70;99.90
19970;DHT22;10146;47.754;9.566;2023-04-15T07:11:06;4.80;99.90
19970;DHT22;10146;47.754;9.566;2023-04-15T07:13:32;5.00;99.90
19970;DHT22;10146;47.754;9.566;2023-04-15T07:15:57;5.00;99.90
19970;DHT22;10146;47.754;9.566;2023-04-15T07:18:23;5.00;99.90
19970;DHT22;10146;47.754;9.566;2023-04-15T07:20:48;5.10;99.90
19970;DHT22;10146;47.754;9.566;2023-04-15T07:23:14;5.30;99.90
19970;DHT22;10146;47.754;9.566;2023-04-15T07:25:40;5.50;99.90
19970;DHT22;10146;47.754;9.566;2023-04-15T07:28:06;5.60;99.90
19970;DHT22;10146;47.754;9.566;2023-04-15T07:30:32;5.70;99.90
19970;DHT22;10146;47.754;9.566;2023-04-15T07:32:57;5.80;99.90
19970;DHT22;10146;47.754;9.566;2023-04-15T07:35:23;6.00;99.90
19970;DHT22;10146;47.754;9.566;2023-04-15T07:37:50;6.10;99.90
19970;DHT22;10146;47.754;9.566;2023-04-15T07:40:16;6.30;99.90
19970;DHT22;10146;47.754;9.566;2023-04-15T07:42:42;6.30;99.90
19970;DHT22;10146;47.754;9.566;2023-04-15T07:45:08;6.50;99.90
19970;DHT22;10146;47.754;9.566;2023-04-15T07:47:34;6.70;99.90
19970;DHT22;10146;47.754;9.566;2023-04-15T07:50:00;6.90;99.90
19970;DHT22;10146;47.754;9.566;2023-04-15T07:52:26;7.10;99.90
19970;DHT22;10146;47.754;9.566;2023-04-15T07:54:52;7.40;99.90
19970;DHT22;10146;47.754;9.566;2023-04-15T07:57:18;7.70;99.90
19970;DHT22;10146;47.754;9.566;2023-04-15T07:59:44;7.80;99.90
19970;DHT22;10146;47.754;9.566;2023-04-15T08:02:10;8.00;99.90
19970;DHT22;10146;47.754;9.566;2023-04-15T08:04:35;8.30;99.90
19970;DHT22;10146;47.754;9.566;2023-04-15T08:07:02;8.00;99.90
19970;DHT22;10146;47.754;9.566;2023-04-15T08:09:28;8.00;99.90
19970;DHT22;10146;47.754;9.566;2023-04-15T08:11:53;8.20;99.90
19970;DHT22;10146;47.754;9.566;2023-04-15T08:14:19;8.00;99.90
19970;DHT22;10146;47.754;9.566;2023-04-15T08:16:45;8.10;99.90
19970;DHT22;10146;47.754;9.566;2023-04-15T08:19:10;8.20;99.90
19970;DHT22;10146;47.754;9.566;2023-04-15T08:21:36;8.30;99.90
19970;DHT22;10146;47.754;9.566;2023-04-15T08:24:02;8.30;99.90
19970;DHT22;10146;47.754;9.566;2023-04-15T08:26:27;8.50;99.90
19970;DHT22;10146;47.754;9.566;2023-04-15T08:28:53;8.50;99.90
19970;DHT22;10146;47.754;9.566;2023-04-15T08:31:19;8.40;99.90
19970;DHT22;10146;47.754;9.566;2023-04-15T08:33:45;8.60;99.90
19970;DHT22;10146;47.754;9.566;2023-04-15T08:36:11;8.60;99.90
19970;DHT22;10146;47.754;9.566;2023-04-15T08:38:38;8.70;99.90
19970;DHT22;10146;47.754;9.566;2023-04-15T08:41:10;8.80;99.90
19970;DHT22;10146;47.754;9.566;2023-04-15T08:43:45;8.80;99.90
19970;DHT22;10146;47.754;9.566;2023-04-15T08:46:12;8.90;99.90
19970;DHT22;10146;47.754;9.566;2023-04-15T08:48:37;9.00;99.90
19970;DHT22;10146;47.754;9.566;2023-04-15T08:51:05;9.00;99.90
19970;DHT22;10146;47.754;9.566;2023-04-15T08:53:31;9.10;99.90
19970;DHT22;10146;47.754;9.566;2023-04-15T08:55:59;9.10;99.90
19970;DHT22;10146;47.754;9.566;2023-04-15T08:58:29;9.10;99.90
19970;DHT22;10146;47.754;9.566;2023-04-15T09:00:55;9.20;99.90
19970;DHT22;10146;47.754;9.566;2023-04-15T09:03:21;9.40;99.90
19970;DHT22;10146;47.754;9.566;2023-04-15T09:05:49;9.60;99.90
19970;DHT22;10146;47.754;9.566;2023-04-15T09:08:15;9.60;99.90
19970;DHT22;10146;47.754;9.566;2023-04-15T09:10:41;9.70;99.90
19970;DHT22;10146;47.754;9.566;2023-04-15T09:13:07;9.80;99.90
19970;DHT22;10146;47.754;9.566;2023-04-15T09:15:37;9.90;99.90
19970;DHT22;10146;47.754;9.566;2023-04-15T09:18:03;10.00;99.90
19970;DHT22;10146;47.754;9.566;2023-04-15T09:20:29;10.10;99.90
19970;DHT22;10146;47.754;9.566;2023-04-15T09:22:54;10.30;99.90
19970;DHT22;10146;47.754;9.566;2023-04-15T09:27:49;10.50;99.90
19970;DHT22;10146;47.754;9.566;2023-04-15T09:30:16;10.50;99.90
19970;DHT22;10146;47.754;9.566;2023-04-15T09:33:08;10.60;99.90
19970;DHT22;10146;47.754;9.566;2023-04-15T09:35:35;10.70;99.90
19970;DHT22;10146;47.754;9.566;2023-04-15T09:38:03;10.80;99.90
19970;DHT22;10146;47.754;9.566;2023-04-15T09:42:58;11.00;99.90
19970;DHT22;10146;47.754;9.566;2023-04-15T09:45:24;11.00;99.90
19970;DHT22;10146;47.754;9.566;2023-04-15T09:47:50;11.10;99.90
19970;DHT22;10146;47.754;9.566;2023-04-15T09:50:18;11.00;99.90
19970;DHT22;10146;47.754;9.566;2023-04-15T09:52:44;11.10;99.90
19970;DHT22;10146;47.754;9.566;2023-04-15T09:55:11;11.10;99.90
19970;DHT22;10146;47.754;9.566;2023-04-15T09:57:38;10.80;99.90
19970;DHT22;10146;47.754;9.566;2023-04-15T10:00:07;10.70;99.90
19970;DHT22;10146;47.754;9.566;2023-04-15T10:02:33;10.70;99.90
19970;DHT22;10146;47.754;9.566;2023-04-15T10:05:01;10.70;99.90
19970;DHT22;10146;47.754;9.566;2023-04-15T10:07:27;11.00;99.90
19970;DHT22;10146;47.754;9.566;2023-04-15T10:09:53;11.00;99.90
19970;DHT22;10146;47.754;9.566;2023-04-15T10:12:19;11.10;99.90
19970;DHT22;10146;47.754;9.566;2023-04-15T10:14:57;11.20;99.90
19970;DHT22;10146;47.754;9.566;2023-04-15T10:17:26;11.40;99.90
19970;DHT22;10146;47.754;9.566;2023-04-15T10:19:54;11.30;99.90
19970;DHT22;10146;47.754;9.566;2023-04-15T10:22:21;11.10;99.90
19970;DHT22;10146;47.754;9.566;2023-04-15T10:24:48;11.50;99.90
19970;DHT22;10146;47.754;9.566;2023-04-15T10:27:16;11.60;99.90
19970;DHT22;10146;47.754;9.566;2023-04-15T10:29:42;11.60;99.90
19970;DHT22;10146;47.754;9.566;2023-04-15T10:32:08;11.60;99.90
19970;DHT22;10146;47.754;9.566;2023-04-15T10:34:35;11.70;99.90
19970;DHT22;10146;47.754;9.566;2023-04-15T10:37:01;12.00;99.90
19970;DHT22;10146;47.754;9.566;2023-04-15T10:42:09;12.00;99.90
19970;DHT22;10146;47.754;9.566;2023-04-15T10:44:38;12.20;99.90
19970;DHT22;10146;47.754;9.566;2023-04-15T10:47:10;12.30;99.90
19970;DHT22;10146;47.754;9.566;2023-04-15T10:49:49;12.40;98.20
19970;DHT22;10146;47.754;9.566;2023-04-15T10:52:17;12.10;99.90
19970;DHT22;10146;47.754;9.566;2023-04-15T10:54:43;12.20;97.10
19970;DHT22;10146;47.754;9.566;2023-04-15T10:57:14;12.30;99.40
19970;DHT22;10146;47.754;9.566;2023-04-15T11:00:08;12.40;98.40
19970;DHT22;10146;47.754;9.566;2023-04-15T11:02:39;12.30;98.10
19970;DHT22;10146;47.754;9.566;2023-04-15T11:05:05;12.40;99.30
19970;DHT22;10146;47.754;9.566;2023-04-15T11:07:48;12.40;99.30
19970;DHT22;10146;47.754;9.566;2023-04-15T11:12:43;12.30;96.20
19970;DHT22;10146;47.754;9.566;2023-04-15T11:15:33;12.30;97.00
19970;DHT22;10146;47.754;9.566;2023-04-15T11:18:09;12.40;95.30
19970;DHT22;10146;47.754;9.566;2023-04-15T11:20:35;12.50;94.40
19970;DHT22;10146;47.754;9.566;2023-04-15T11:23:01;12.60;96.40
19970;DHT22;10146;47.754;9.566;2023-04-15T11:25:32;12.70;94.20
19970;DHT22;10146;47.754;9.566;2023-04-15T11:27:59;12.70;94.10
19970;DHT22;10146;47.754;9.566;2023-04-15T11:30:28;12.60;94.70
19970;DHT22;10146;47.754;9.566;2023-04-15T11:32:56;12.40;94.50
19970;DHT22;10146;47.754;9.566;2023-04-15T11:35:22;12.50;93.50
19970;DHT22;10146;47.754;9.566;2023-04-15T11:37:48;12.70;92.50
19970;DHT22;10146;47.754;9.566;2023-04-15T11:40:15;12.80;94.10
19970;DHT22;10146;47.754;9.566;2023-04-15T11:42:43;12.80;95.20
19970;DHT22;10146;47.754;9.566;2023-04-15T11:45:14;12.90;95.30
19970;DHT22;10146;47.754;9.566;2023-04-15T11:47:42;13.10;93.50
19970;DHT22;10146;47.754;9.566;2023-04-15T11:50:19;13.10;93.80
19970;DHT22;10146;47.754;9.566;2023-04-15T11:52:59;13.00;92.20
19970;DHT22;10146;47.754;9.566;2023-04-15T11:55:26;13.10;92.00
19970;DHT22;10146;47.754;9.566;2023-04-15T11:58:15;13.60;92.40
19970;DHT22;10146;47.754;9.566;2023-04-15T12:00:49;13.60;89.60
19970;DHT22;10146;47.754;9.566;2023-04-15T12:03:28;13.70;87.20
19970;DHT22;10146;47.754;9.566;2023-04-15T12:06:13;14.10;84.20
19970;DHT22;10146;47.754;9.566;2023-04-15T12:11:33;14.00;84.60
19970;DHT22;10146;47.754;9.566;2023-04-15T12:16:29;14.20;82.30
19970;DHT22;10146;47.754;9.566;2023-04-15T12:18:57;14.30;81.70
19970;DHT22;10146;47.754;9.566;2023-04-15T12:21:27;14.20;75.90
19970;DHT22;10146;47.754;9.566;2023-04-15T12:24:00;13.90;76.80
19970;DHT22;10146;47.754;9.566;2023-04-15T12:26:33;13.90;74.20
19970;DHT22;10146;47.754;9.566;2023-04-15T12:29:06;13.90;74.80
19970;DHT22;10146;47.754;9.566;2023-04-15T12:31:34;13.90;70.40
19970;DHT22;10146;47.754;9.566;2023-04-15T12:34:01;13.80;68.40
19970;DHT22;10146;47.754;9.566;2023-04-15T12:36:28;13.80;72.40
19970;DHT22;10146;47.754;9.566;2023-04-15T12:38:56;13.60;71.10
19970;DHT22;10146;47.754;9.566;2023-04-15T12:41:21;13.40;75.00
19970;DHT22;10146;47.754;9.566;2023-04-15T12:43:48;13.30;74.90
19970;DHT22;10146;47.754;9.566;2023-04-15T12:46:14;13.30;76.00
19970;DHT22;10146;47.754;9.566;2023-04-15T12:48:40;13.20;79.20
19970;DHT22;10146;47.754;9.566;2023-04-15T12:51:06;13.20;80.40
19970;DHT22;10146;47.754;9.566;2023-04-15T12:53:31;13.10;81.60
19970;DHT22;10146;47.754;9.566;2023-04-15T12:55:57;12.90;83.30
19970;DHT22;10146;47.754;9.566;2023-04-15T12:58:23;12.80;85.30
19970;DHT22;10146;47.754;9.566;2023-04-15T13:00:49;13.10;88.30
19970;DHT22;10146;47.754;9.566;2023-04-15T13:03:15;13.00;87.10
19970;DHT22;10146;47.754;9.566;2023-04-15T13:05:40;13.20;87.10
19970;DHT22;10146;47.754;9.566;2023-04-15T13:08:06;13.20;86.40
19970;DHT22;10146;47.754;9.566;2023-04-15T13:10:34;13.20;86.50
19970;DHT22;10146;47.754;9.566;2023-04-15T13:13:01;13.40;88.80
19970;DHT22;10146;47.754;9.566;2023-04-15T13:15:26;13.60;90.50
19970;DHT22;10146;47.754;9.566;2023-04-15T13:17:52;13.60;89.30
19970;DHT22;10146;47.754;9.566;2023-04-15T13:20:18;13.50;86.20
19970;DHT22;10146;47.754;9.566;2023-04-15T13:22:43;13.30;85.40
19970;DHT22;10146;47.754;9.566;2023-04-15T13:25:09;13.20;87.00
19970;DHT22;10146;47.754;9.566;2023-04-15T13:27:35;12.90;87.10
19970;DHT22;10146;47.754;9.566;2023-04-15T13:30:00;12.90;88.10
19970;DHT22;10146;47.754;9.566;2023-04-15T13:32:26;12.90;89.80
19970;DHT22;10146;47.754;9.566;2023-04-15T13:34:52;12.70;90.30
19970;DHT22;10146;47.754;9.566;2023-04-15T13:37:19;12.40;91.30
19970;DHT22;10146;47.754;9.566;2023-04-15T13:39:44;12.50;93.50
19970;DHT22;10146;47.754;9.566;2023-04-15T13:42:10;12.40;94.10
19970;DHT22;10146;47.754;9.566;2023-04-15T13:44:35;12.10;99.90
19970;DHT22;10146;47.754;9.566;2023-04-15T13:47:01;11.90;99.90
19970;DHT22;10146;47.754;9.566;2023-04-15T13:49:27;11.90;99.90
19970;DHT22;10146;47.754;9.566;2023-04-15T13:51:53;11.90;99.90
19970;DHT22;10146;47.754;9.566;2023-04-15T13:54:19;12.20;99.90
19970;DHT22;10146;47.754;9.566;2023-04-15T13:56:44;12.30;99.90
19970;DHT22;10146;47.754;9.566;2023-04-15T13:59:10;12.50;99.90
19970;DHT22;10146;47.754;9.566;2023-04-15T14:01:35;12.60;99.90
19970;DHT22;10146;47.754;9.566;2023-04-15T14:04:01;12.40;98.90
19970;DHT22;10146;47.754;9.566;2023-04-15T14:06:27;12.60;99.60
19970;DHT22;10146;47.754;9.566;2023-04-15T14:08:53;12.40;98.60
19970;DHT22;10146;47.754;9.566;2023-04-15T14:11:19;12.50;99.30
19970;DHT22;10146;47.754;9.566;2023-04-15T14:13:45;12.60;98.00
19970;DHT22;10146;47.754;9.566;2023-04-15T14:16:10;12.70;97.40
19970;DHT22;10146;47.754;9.566;2023-04-15T14:18:36;13.00;97.50
19970;DHT22;10146;47.754;9.566;2023-04-15T14:21:02;13.10;96.40
19970;DHT22;10146;47.754;9.566;2023-04-15T14:23:28;13.00;95.30
19970;DHT22;10146;47.754;9.566;2023-04-15T14:25:53;12.90;92.90
19970;DHT22;10146;47.754;9.566;2023-04-15T14:28:19;12.70;92.50
19970;DHT22;10146;47.754;9.566;2023-04-15T14:30:45;12.70;92.00
19970;DHT22;10146;47.754;9.566;2023-04-15T14:33:11;12.70;92.10
19970;DHT22;10146;47.754;9.566;2023-04-15T14:35:36;12.60;92.20
19970;DHT22;10146;47.754;9.566;2023-04-15T14:38:02;12.50;93.00
19970;DHT22;10146;47.754;9.566;2023-04-15T14:40:28;12.50;93.20
19970;DHT22;10146;47.754;9.566;2023-04-15T14:42:53;12.40;93.50
19970;DHT22;10146;47.754;9.566;2023-04-15T14:45:19;12.20;92.60
19970;DHT22;10146;47.754;9.566;2023-04-15T14:47:45;12.00;92.40
19970;DHT22;10146;47.754;9.566;2023-04-15T14:50:11;12.00;93.00
19970;DHT22;10146;47.754;9.566;2023-04-15T14:52:37;12.00;94.20
19970;DHT22;10146;47.754;9.566;2023-04-15T14:55:12;11.90;94.90
19970;DHT22;10146;47.754;9.566;2023-04-15T14:57:38;12.00;93.30
19970;DHT22;10146;47.754;9.566;2023-04-15T15:00:05;11.90;93.60
19970;DHT22;10146;47.754;9.566;2023-04-15T15:02:32;11.80;97.50
19970;DHT22;10146;47.754;9.566;2023-04-15T15:04:59;11.90;95.60
19970;DHT22;10146;47.754;9.566;2023-04-15T15:07:25;11.70;93.40
19970;DHT22;10146;47.754;9.566;2023-04-15T15:09:50;11.70;94.80
19970;DHT22;10146;47.754;9.566;2023-04-15T15:12:16;11.60;95.10
19970;DHT22;10146;47.754;9.566;2023-04-15T15:14:42;11.60;94.30
19970;DHT22;10146;47.754;9.566;2023-04-15T15:17:09;11.60;92.80
19970;DHT22;10146;47.754;9.566;2023-04-15T15:19:34;11.60;96.50
19970;DHT22;10146;47.754;9.566;2023-04-15T15:22:00;11.60;95.00
19970;DHT22;10146;47.754;9.566;2023-04-15T15:24:26;11.50;97.80
19970;DHT22;10146;47.754;9.566;2023-04-15T15:26:51;11.60;95.00
19970;DHT22;10146;47.754;9.566;2023-04-15T15:29:17;11.60;92.80
19970;DHT22;10146;47.754;9.566;2023-04-15T15:31:42;11.60;92.40
19970;DHT22;10146;47.754;9.566;2023-04-15T15:34:08;11.50;93.50
19970;DHT22;10146;47.754;9.566;2023-04-15T15:36:33;11.40;98.40
19970;DHT22;10146;47.754;9.566;2023-04-15T15:38:59;11.40;99.90
19970;DHT22;10146;47.754;9.566;2023-04-15T15:41:25;11.10;99.90
19970;DHT22;10146;47.754;9.566;2023-04-15T15:43:53;10.90;99.90
19970;DHT22;10146;47.754;9.566;2023-04-15T15:46:19;10.80;99.90
19970;DHT22;10146;47.754;9.566;2023-04-15T15:48:45;10.60;99.90
19970;DHT22;10146;47.754;9.566;2023-04-15T15:51:10;10.20;99.90